createdAt,value
2023-04-03T00:00:57.453Z,13.32
2023-04-03T00:03:24.847Z,13.32
2023-04-03T00:05:51.834Z,12.95
2023-04-03T00:08:20.425Z,12.75
2023-04-03T00:10:47.434Z,11.80
2023-04-03T00:13:14.804Z,12.45
2023-04-03T00:15:42.311Z,11.52
2023-04-03T00:18:09.764Z,10.77
2023-04-03T00:20:37.067Z,11.43
2023-04-03T00:23:04.262Z,11.15
2023-04-03T00:25:32.887Z,11.65
2023-04-03T00:27:59.971Z,11.48
2023-04-03T00:30:26.965Z,10.85
2023-04-03T00:32:54.346Z,11.32
2023-04-03T00:35:22.601Z,11.15
2023-04-03T00:37:51.953Z,10.55
2023-04-03T00:40:19.227Z,10.50
2023-04-03T00:42:49.916Z,10.27
2023-04-03T00:45:34.546Z,10.80
2023-04-03T00:48:03.582Z,10.87
2023-04-03T00:50:31.043Z,10.73
2023-04-03T00:52:59.578Z,11.00
2023-04-03T00:55:26.650Z,10.40
2023-04-03T00:57:57.492Z,10.18
2023-04-03T01:00:25.504Z,10.45
2023-04-03T01:02:53.006Z,10.35
2023-04-03T01:05:21.660Z,9.93
2023-04-03T01:07:50.494Z,10.27
2023-04-03T01:10:18.709Z,11.00
2023-04-03T01:12:48.685Z,9.27
2023-04-03T01:15:19.401Z,10.07
2023-04-03T01:17:48.726Z,10.10
2023-04-03T01:21:02.847Z,10.10
2023-04-03T01:23:42.394Z,10.32
2023-04-03T01:26:09.649Z,10.10
2023-04-03T01:28:37.361Z,10.02
2023-04-03T01:31:16.294Z,10.55
2023-04-03T01:33:44.891Z,9.73
2023-04-03T01:36:17.540Z,9.75
2023-04-03T01:38:44.519Z,9.88
2023-04-03T01:41:11.513Z,10.20
2023-04-03T01:43:38.739Z,9.90
2023-04-03T01:46:05.852Z,10.45
2023-04-03T01:48:32.877Z,9.65
2023-04-03T01:51:01.249Z,10.30
2023-04-03T01:53:28.200Z,9.98
2023-04-03T01:55:55.124Z,9.52
2023-04-03T01:58:22.042Z,10.50
2023-04-03T02:00:49.306Z,10.63
2023-04-03T02:03:16.438Z,10.82
2023-04-03T02:05:43.345Z,11.13
2023-04-03T02:08:11.782Z,10.73
2023-04-03T02:10:39.010Z,9.52
2023-04-03T02:13:06.215Z,10.23
2023-04-03T02:15:33.181Z,10.57
2023-04-03T02:18:00.246Z,9.85
2023-04-03T02:20:27.438Z,10.10
2023-04-03T02:22:54.347Z,9.88
2023-04-03T02:25:22.622Z,9.05
2023-04-03T02:27:49.547Z,9.30
2023-04-03T02:30:17.009Z,10.02
2023-04-03T02:32:44.526Z,10.10
2023-04-03T02:35:12.375Z,9.50
2023-04-03T02:37:39.428Z,9.65
2023-04-03T02:40:07.788Z,10.25
2023-04-03T02:42:36.243Z,9.52
2023-04-03T02:45:03.341Z,10.02
2023-04-03T02:47:30.351Z,10.57
2023-04-03T02:49:57.374Z,9.43
2023-04-03T02:52:24.338Z,10.23
2023-04-03T02:54:51.269Z,9.90
2023-04-03T02:57:18.286Z,9.57
2023-04-03T02:59:46.812Z,10.10
2023-04-03T03:02:13.742Z,10.35
2023-04-03T03:04:40.766Z,9.60
2023-04-03T03:07:07.799Z,11.13
2023-04-03T03:09:34.973Z,10.38
2023-04-03T03:12:02.355Z,9.95
2023-04-03T03:14:29.437Z,9.82
2023-04-03T03:16:57.802Z,10.18
2023-04-03T03:19:24.816Z,10.73
2023-04-03T03:21:51.784Z,9.98
2023-04-03T03:24:18.718Z,9.07
2023-04-03T03:26:45.755Z,9.57
2023-04-03T03:29:12.679Z,8.98
2023-04-03T03:31:39.646Z,10.00
2023-04-03T03:34:08.027Z,9.77
2023-04-03T03:36:34.976Z,10.02
2023-04-03T03:39:01.929Z,9.55
2023-04-03T03:41:29.023Z,10.02
2023-04-03T03:43:55.951Z,9.32
2023-04-03T03:46:22.939Z,8.65
2023-04-03T03:48:50.017Z,9.55
2023-04-03T03:51:18.425Z,9.40
2023-04-03T03:53:45.382Z,9.25
2023-04-03T03:56:12.400Z,9.50
2023-04-03T03:58:39.332Z,9.38
2023-04-03T04:01:07.626Z,9.90
2023-04-03T04:03:34.900Z,10.25
2023-04-03T04:06:01.875Z,9.70
2023-04-03T04:08:30.374Z,10.60
2023-04-03T04:10:57.645Z,10.52
2023-04-03T04:13:25.627Z,9.60
2023-04-03T04:15:52.577Z,10.40
2023-04-03T04:18:19.594Z,9.88
2023-04-03T04:20:46.581Z,10.57
2023-04-03T04:23:13.825Z,10.65
2023-04-03T04:25:42.501Z,10.32
2023-04-03T04:28:09.659Z,10.23
2023-04-03T04:30:36.599Z,9.95
2023-04-03T04:33:03.832Z,10.00
2023-04-03T04:35:30.896Z,10.35
2023-04-03T04:37:57.854Z,10.90
2023-04-03T04:40:24.978Z,10.57
2023-04-03T04:42:53.471Z,10.20
2023-04-03T04:45:20.449Z,10.13
2023-04-03T04:47:47.459Z,10.27
2023-04-03T04:50:14.407Z,10.25
2023-04-03T04:52:41.353Z,10.27
2023-04-03T04:55:08.862Z,11.07
2023-04-03T04:57:35.853Z,10.35
2023-04-03T05:00:05.251Z,11.27
2023-04-03T05:02:32.180Z,10.57
2023-04-03T05:04:59.179Z,10.13
2023-04-03T05:07:26.149Z,12.15
2023-04-03T05:09:53.156Z,10.68
2023-04-03T05:12:20.402Z,11.32
2023-04-03T05:14:47.355Z,11.30
2023-04-03T05:17:15.646Z,11.07
2023-04-03T05:19:42.556Z,11.02
2023-04-03T05:22:09.527Z,10.57
2023-04-03T05:24:36.548Z,10.05
2023-04-03T05:27:03.647Z,10.48
2023-04-03T05:29:30.616Z,11.15
2023-04-03T05:31:57.672Z,10.25
2023-04-03T05:34:26.093Z,11.25
2023-04-03T05:36:53.077Z,11.00
2023-04-03T05:39:20.439Z,10.18
2023-04-03T05:41:47.360Z,11.23
2023-04-03T05:44:14.324Z,11.32
2023-04-03T05:46:41.327Z,11.35
2023-04-03T05:49:08.277Z,11.07
2023-04-03T05:51:37.837Z,12.00
2023-04-03T05:54:10.215Z,11.63
2023-04-03T05:56:37.240Z,11.75
2023-04-03T05:59:04.180Z,11.32
2023-04-03T06:01:31.095Z,10.80
2023-04-03T06:03:58.206Z,10.90
2023-04-03T06:06:25.397Z,12.00
2023-04-03T06:08:53.728Z,11.18
2023-04-03T06:11:20.723Z,11.02
2023-04-03T06:13:47.683Z,11.25
2023-04-03T06:16:15.921Z,11.50
2023-04-03T06:18:42.841Z,12.73
2023-04-03T06:21:10.033Z,12.02
2023-04-03T06:23:36.952Z,12.68
2023-04-03T06:26:05.601Z,12.20
2023-04-03T06:28:32.839Z,12.48
2023-04-03T06:30:59.814Z,12.45
2023-04-03T06:33:26.773Z,12.77
2023-04-03T06:35:58.481Z,13.20
2023-04-03T06:38:25.553Z,13.05
2023-04-03T06:40:52.636Z,13.18
2023-04-03T06:43:22.439Z,13.25
2023-04-03T06:45:50.391Z,13.20
2023-04-03T06:48:17.571Z,13.43
2023-04-03T06:50:44.498Z,12.50
2023-04-03T06:53:11.737Z,12.18
2023-04-03T06:55:39.054Z,10.38
2023-04-03T06:58:06.293Z,11.52
2023-04-03T07:00:34.849Z,10.00
2023-04-03T07:03:02.052Z,8.40
2023-04-03T07:05:29.050Z,9.15
2023-04-03T07:07:56.061Z,7.80
2023-04-03T07:10:23.106Z,7.78
2023-04-03T07:12:50.016Z,8.13
2023-04-03T07:15:17.051Z,7.97
2023-04-03T07:17:45.372Z,8.93
2023-04-03T07:20:12.666Z,9.55
2023-04-03T07:22:39.693Z,9.13
2023-04-03T07:25:07.732Z,10.45
2023-04-03T07:27:35.064Z,10.98
2023-04-03T07:30:02.381Z,11.02
2023-04-03T07:32:29.950Z,11.80
2023-04-03T07:34:58.345Z,12.25
2023-04-03T07:37:25.661Z,12.30
2023-04-03T07:39:52.772Z,12.68
2023-04-03T07:42:19.772Z,12.82
2023-04-03T07:44:46.811Z,12.48
2023-04-03T07:47:13.903Z,10.35
2023-04-03T07:49:41.054Z,11.73
2023-04-03T07:52:09.422Z,12.15
2023-04-03T07:54:36.503Z,11.70
2023-04-03T07:57:03.625Z,10.52
2023-04-03T07:59:30.782Z,10.18
2023-04-03T08:01:57.747Z,10.43
2023-04-03T08:04:24.862Z,9.25
2023-04-03T08:06:51.931Z,9.10
2023-04-03T08:09:20.595Z,9.80
2023-04-03T08:11:47.545Z,9.18
2023-04-03T08:14:14.946Z,8.15
2023-04-03T08:16:42.031Z,7.72
2023-04-03T08:19:15.141Z,7.45
2023-04-03T08:21:46.171Z,7.50
2023-04-03T08:24:13.149Z,7.57
2023-04-03T08:26:41.471Z,7.82
2023-04-03T08:29:08.405Z,7.45
2023-04-03T08:31:35.380Z,7.10
2023-04-03T08:34:02.711Z,7.82
2023-04-03T08:36:30.348Z,7.65
2023-04-03T08:38:57.857Z,7.57
2023-04-03T08:41:30.362Z,7.00
2023-04-03T08:44:13.858Z,6.25
2023-04-03T08:47:02.469Z,6.40
2023-04-03T08:49:33.645Z,5.40
2023-04-03T08:52:05.187Z,5.95
2023-04-03T08:54:36.230Z,5.88
2023-04-03T08:57:06.327Z,5.43
2023-04-03T08:59:37.725Z,5.93
2023-04-03T09:02:20.994Z,6.10
2023-04-03T09:04:48.028Z,6.47
2023-04-03T09:07:21.463Z,5.80
2023-04-03T09:09:48.666Z,4.85
2023-04-03T09:12:22.023Z,5.20
2023-04-03T09:15:00.147Z,4.57
2023-04-03T09:17:39.170Z,5.70
2023-04-03T09:20:20.340Z,5.07
2023-04-03T09:22:52.429Z,5.45
2023-04-03T09:25:22.953Z,5.00
2023-04-03T09:27:50.004Z,4.90
2023-04-03T09:30:20.979Z,5.28
2023-04-03T09:32:49.950Z,5.38
2023-04-03T09:35:32.783Z,4.95
2023-04-03T09:38:18.242Z,4.15
2023-04-03T09:40:46.801Z,4.93
2023-04-03T09:43:25.800Z,4.25
2023-04-03T09:45:54.841Z,4.40
2023-04-03T09:48:23.474Z,4.50
2023-04-03T09:50:59.404Z,4.72
2023-04-03T09:53:33.176Z,4.10
2023-04-03T09:56:02.298Z,4.18
2023-04-03T09:58:42.629Z,4.70
2023-04-03T10:01:27.322Z,4.35
2023-04-03T10:04:09.872Z,4.20
2023-04-03T10:06:39.348Z,3.85
2023-04-03T10:09:17.361Z,4.13
2023-04-03T10:12:00.322Z,4.28
2023-04-03T10:14:27.282Z,4.32
2023-04-03T10:17:03.229Z,4.28
2023-04-03T10:19:37.648Z,3.75
2023-04-03T10:22:14.151Z,4.13
2023-04-03T10:24:49.613Z,3.83
2023-04-03T10:27:23.290Z,3.97
2023-04-03T10:29:56.081Z,4.32
2023-04-03T10:32:40.222Z,3.13
2023-04-03T10:35:17.538Z,3.30
2023-04-03T10:37:57.617Z,3.05
2023-04-03T10:40:31.862Z,2.55
2023-04-03T10:43:07.705Z,3.08
2023-04-03T10:45:52.854Z,3.00
2023-04-03T10:51:00.471Z,3.00
2023-04-03T10:53:35.877Z,2.83
2023-04-03T10:56:10.472Z,2.97
2023-04-03T10:58:41.140Z,2.58
2023-04-03T11:01:12.873Z,2.70
2023-04-03T11:03:45.150Z,2.75
2023-04-03T11:06:14.654Z,2.80
2023-04-03T11:08:47.448Z,2.78
2023-04-03T11:11:18.036Z,2.20
2023-04-03T11:13:51.944Z,2.58
2023-04-03T11:16:24.805Z,2.17
2023-04-03T11:18:58.902Z,2.60
2023-04-03T11:21:29.948Z,2.20
2023-04-03T11:23:58.788Z,2.28
2023-04-03T11:26:32.163Z,2.28
2023-04-03T11:29:02.550Z,2.17
2023-04-03T11:31:54.705Z,2.10
2023-04-03T11:34:34.480Z,2.20
2023-04-03T11:37:05.145Z,2.30
2023-04-03T11:39:35.378Z,2.35
2023-04-03T11:42:16.598Z,2.38
2023-04-03T11:44:43.643Z,2.47
2023-04-03T11:47:11.695Z,2.00
2023-04-03T11:50:03.504Z,2.78
2023-04-03T11:53:01.948Z,2.80
2023-04-03T11:55:55.997Z,2.67
2023-04-03T11:58:24.529Z,2.85
2023-04-03T12:01:07.026Z,2.42
2023-04-03T12:03:53.411Z,2.38
2023-04-03T12:06:53.844Z,2.80
2023-04-03T12:09:32.418Z,2.05
2023-04-03T12:12:02.402Z,2.35
2023-04-03T12:14:29.915Z,2.70
2023-04-03T12:16:58.792Z,2.22
2023-04-03T12:19:42.620Z,2.47
2023-04-03T12:22:15.424Z,2.05
2023-04-03T12:24:45.494Z,2.17
2023-04-03T12:27:45.598Z,1.98
2023-04-03T12:30:22.270Z,1.92
2023-04-03T12:33:12.694Z,2.25
2023-04-03T12:35:48.373Z,2.33
2023-04-03T12:40:52.634Z,2.45
2023-04-03T12:43:32.569Z,2.43
2023-04-03T12:46:04.695Z,2.60
2023-04-03T12:48:35.070Z,2.50
2023-04-03T12:51:03.430Z,2.47
2023-04-03T12:53:34.129Z,2.03
2023-04-03T12:56:24.649Z,2.50
2023-04-03T12:58:54.133Z,2.55
2023-04-03T13:01:23.510Z,2.40
2023-04-03T13:03:53.470Z,2.47
2023-04-03T13:06:23.697Z,3.35
2023-04-03T13:08:52.497Z,3.13
2023-04-03T13:11:22.219Z,3.20
2023-04-03T13:13:58.581Z,2.40
2023-04-03T13:16:25.675Z,2.28
2023-04-03T13:18:53.562Z,2.30
2023-04-03T13:21:23.748Z,2.15
2023-04-03T13:24:00.492Z,2.03
2023-04-03T13:26:34.782Z,2.13
2023-04-03T13:29:12.802Z,2.13
2023-04-03T13:31:44.756Z,2.20
2023-04-03T13:34:14.211Z,2.42
2023-04-03T13:36:45.469Z,1.92
2023-04-03T13:39:24.455Z,1.77
2023-04-03T13:44:39.250Z,2.10
2023-04-03T13:47:18.431Z,1.77
2023-04-03T13:49:47.096Z,1.60
2023-04-03T13:52:25.768Z,1.85
2023-04-03T13:54:55.454Z,1.52
2023-04-03T13:57:23.491Z,1.70
2023-04-03T13:59:52.533Z,1.90
2023-04-03T14:02:23.053Z,1.60
2023-04-03T14:04:55.220Z,2.13
2023-04-03T14:07:22.416Z,1.50
2023-04-03T14:09:49.723Z,1.70
2023-04-03T14:12:30.325Z,1.67
2023-04-03T14:15:01.227Z,2.03
2023-04-03T14:17:28.289Z,1.77
2023-04-03T14:19:56.371Z,1.73
2023-04-03T14:22:25.647Z,1.80
2023-04-03T14:24:53.214Z,1.80
2023-04-03T14:27:22.662Z,1.80
2023-04-03T14:29:51.984Z,2.28
2023-04-03T14:32:22.229Z,2.00
2023-04-03T14:34:50.755Z,2.03
2023-04-03T14:37:20.170Z,2.10
2023-04-03T14:39:47.902Z,2.08
2023-04-03T14:42:16.855Z,2.25
2023-04-03T14:44:43.884Z,1.63
2023-04-03T14:47:23.312Z,2.08
2023-04-03T14:49:59.250Z,2.13
2023-04-03T14:52:29.147Z,1.85
2023-04-03T14:54:56.466Z,2.22
2023-04-03T14:57:25.527Z,1.80
2023-04-03T14:59:52.947Z,1.92
2023-04-03T15:02:29.426Z,1.80
2023-04-03T15:04:58.631Z,1.90
2023-04-03T15:07:28.191Z,2.00
2023-04-03T15:09:55.395Z,1.90
2023-04-03T15:12:22.491Z,1.80
2023-04-03T15:14:57.268Z,1.80
2023-04-03T15:17:27.973Z,2.00
2023-04-03T15:19:54.956Z,2.00
2023-04-03T15:22:23.280Z,2.15
2023-04-03T15:24:50.397Z,1.80
2023-04-03T15:27:17.543Z,2.58
2023-04-03T15:29:45.992Z,1.73
2023-04-03T15:32:14.497Z,1.70
2023-04-03T15:34:42.711Z,1.85
2023-04-03T15:37:09.712Z,2.10
2023-04-03T15:39:38.288Z,2.25
2023-04-03T15:42:05.379Z,2.00
2023-04-03T15:44:32.926Z,1.70
2023-04-03T15:47:00.731Z,2.38
2023-04-03T15:49:27.840Z,1.88
2023-04-03T15:51:55.000Z,1.88
2023-04-03T15:54:21.945Z,1.80
2023-04-03T15:56:50.274Z,2.17
2023-04-03T15:59:17.296Z,2.08
2023-04-03T16:01:44.382Z,2.20
2023-04-03T16:04:11.476Z,2.10
2023-04-03T16:06:39.102Z,2.28
2023-04-03T16:09:07.084Z,2.25
2023-04-03T16:11:34.068Z,2.20
2023-04-03T16:14:02.742Z,2.40
2023-04-03T16:16:30.669Z,2.08
2023-04-03T16:18:57.634Z,2.30
2023-04-03T16:21:24.835Z,2.40
2023-04-03T16:23:52.137Z,2.60
2023-04-03T16:26:19.105Z,2.40
2023-04-03T16:28:46.071Z,2.50
2023-04-03T16:31:14.581Z,2.60
2023-04-03T16:33:41.563Z,2.30
2023-04-03T16:36:08.644Z,2.20
2023-04-03T16:38:36.175Z,2.60
2023-04-03T16:41:03.174Z,2.55
2023-04-03T16:43:30.123Z,2.30
2023-04-03T16:45:57.044Z,2.65
2023-04-03T16:48:25.530Z,2.67
2023-04-03T16:50:52.593Z,2.58
2023-04-03T16:53:19.534Z,2.25
2023-04-03T16:55:46.497Z,2.58
2023-04-03T16:58:13.422Z,2.63
2023-04-03T17:00:40.362Z,2.47
2023-04-03T17:03:07.488Z,3.08
2023-04-03T17:05:35.987Z,2.65
2023-04-03T17:08:03.289Z,2.63
2023-04-03T17:10:30.234Z,2.95
2023-04-03T17:12:57.369Z,2.60
2023-04-03T17:15:24.399Z,2.92
2023-04-03T17:17:53.259Z,2.90
2023-04-03T17:20:20.566Z,2.75
2023-04-03T17:22:48.936Z,2.63
2023-04-03T17:25:16.201Z,2.42
2023-04-03T17:27:43.152Z,2.78
2023-04-03T17:30:11.028Z,3.08
2023-04-03T17:32:38.014Z,2.75
2023-04-03T17:35:05.825Z,2.97
2023-04-03T17:37:32.736Z,2.83
2023-04-03T17:40:01.085Z,2.92
2023-04-03T17:42:28.065Z,2.85
2023-04-03T17:44:54.988Z,2.70
2023-04-03T17:47:21.899Z,2.90
2023-04-03T17:49:48.800Z,2.60
2023-04-03T17:52:16.012Z,3.00
2023-04-03T17:54:43.148Z,2.75
2023-04-03T17:57:11.448Z,2.60
2023-04-03T17:59:38.518Z,2.53
2023-04-03T18:02:05.476Z,2.45
2023-04-03T18:04:32.411Z,2.88
2023-04-03T18:06:59.433Z,2.55
2023-04-03T18:09:29.016Z,2.70
2023-04-03T18:11:57.120Z,3.15
2023-04-03T18:14:27.860Z,2.53
2023-04-03T18:16:55.134Z,2.42
2023-04-03T18:19:23.836Z,2.63
2023-04-03T18:21:52.206Z,2.40
2023-04-03T18:24:21.773Z,2.75
2023-04-03T18:26:52.620Z,2.50
2023-04-03T18:29:20.068Z,2.50
2023-04-03T18:31:51.516Z,2.95
2023-04-03T18:34:18.637Z,2.33
2023-04-03T18:36:45.745Z,2.70
2023-04-03T18:39:12.758Z,2.47
2023-04-03T18:41:40.104Z,2.70
2023-04-03T18:44:10.254Z,2.40
2023-04-03T18:49:06.332Z,2.58
2023-04-03T18:51:33.321Z,2.35
2023-04-03T18:54:00.238Z,2.70
2023-04-03T18:56:27.210Z,2.40
2023-04-03T18:58:54.342Z,2.65
2023-04-03T19:01:21.575Z,2.80
2023-04-03T19:03:48.955Z,2.60
2023-04-03T19:06:17.399Z,2.88
2023-04-03T19:08:44.492Z,2.70
2023-04-03T19:11:11.517Z,2.70
2023-04-03T19:13:51.794Z,3.10
2023-04-03T19:16:25.673Z,2.92
2023-04-03T19:18:52.652Z,3.17
2023-04-03T19:21:20.921Z,3.22
2023-04-03T19:23:47.924Z,3.10
2023-04-03T19:26:14.924Z,3.15
2023-04-03T19:28:42.155Z,3.22
2023-04-03T19:31:11.993Z,3.00
2023-04-03T19:33:38.986Z,2.75
2023-04-03T19:36:06.364Z,3.10
2023-04-03T19:38:35.959Z,2.55
2023-04-03T19:41:05.581Z,2.70
2023-04-03T19:43:32.581Z,3.40
2023-04-03T19:45:59.674Z,3.45
2023-04-03T19:48:26.623Z,3.15
2023-04-03T19:50:53.604Z,3.80
2023-04-03T19:53:20.554Z,3.63
2023-04-03T19:55:49.028Z,3.00
2023-04-03T19:58:16.024Z,2.67
2023-04-03T20:00:43.153Z,3.30
2023-04-03T20:03:10.278Z,2.70
2023-04-03T20:05:37.189Z,2.78
2023-04-03T20:08:04.152Z,2.92
2023-04-03T20:10:31.170Z,2.50
2023-04-03T20:12:59.454Z,2.70
2023-04-03T20:15:26.456Z,2.47
2023-04-03T20:17:53.492Z,2.65
2023-04-03T20:20:20.656Z,2.30
2023-04-03T20:22:47.655Z,2.08
2023-04-03T20:25:17.468Z,2.67
2023-04-03T20:27:51.009Z,2.45
2023-04-03T20:30:19.353Z,3.10
2023-04-03T20:32:46.356Z,2.65
2023-04-03T20:35:13.307Z,2.30
2023-04-03T20:37:40.286Z,2.55
2023-04-03T20:40:08.764Z,2.30
2023-04-03T20:42:35.752Z,2.30
2023-04-03T20:45:02.713Z,2.60
2023-04-03T20:47:31.062Z,2.30
2023-04-03T20:49:58.018Z,2.20
2023-04-03T20:52:25.027Z,2.53
2023-04-03T20:54:51.966Z,2.20
2023-04-03T20:57:19.066Z,2.58
2023-04-03T20:59:46.059Z,2.63
2023-04-03T21:02:12.957Z,2.75
2023-04-03T21:04:44.653Z,2.42
2023-04-03T21:07:49.069Z,2.35
2023-04-03T21:10:53.242Z,2.53
2023-04-03T21:13:57.917Z,2.40
2023-04-03T21:16:24.606Z,2.20
2023-04-03T21:19:09.067Z,3.10
2023-04-03T21:21:36.190Z,2.70
2023-04-03T21:24:04.797Z,2.63
2023-04-03T21:26:32.245Z,2.47
2023-04-03T21:28:59.424Z,2.45
2023-04-03T21:31:47.770Z,2.70
2023-04-03T21:34:16.609Z,3.00
2023-04-03T21:36:43.786Z,2.63
2023-04-03T21:39:10.788Z,2.45
2023-04-03T21:41:37.836Z,2.85
2023-04-03T21:44:05.020Z,2.92
2023-04-03T21:46:32.216Z,2.72
2023-04-03T21:48:59.218Z,2.80
2023-04-03T21:51:27.587Z,2.78
2023-04-03T21:53:55.374Z,2.70
2023-04-03T21:56:23.332Z,2.45
2023-04-03T21:58:50.599Z,2.92
2023-04-03T22:01:18.634Z,2.63
2023-04-03T22:03:46.960Z,2.65
2023-04-03T22:06:16.335Z,2.67
2023-04-03T22:08:44.807Z,2.90
2023-04-03T22:11:13.323Z,3.10
2023-04-03T22:13:41.000Z,3.20
2023-04-03T22:16:09.178Z,3.03
2023-04-03T22:18:36.614Z,2.90
2023-04-03T22:21:04.156Z,2.78
2023-04-03T22:23:31.148Z,3.10
2023-04-03T22:26:00.836Z,2.78
2023-04-03T22:28:28.128Z,2.60
2023-04-03T22:30:55.632Z,2.80
2023-04-03T22:33:22.855Z,2.75
2023-04-03T22:35:50.553Z,2.95
2023-04-03T22:38:17.889Z,2.50
2023-04-03T22:40:45.206Z,2.88
2023-04-03T22:43:13.658Z,2.88
2023-04-03T22:45:47.425Z,3.20
2023-04-03T22:48:14.473Z,3.03
2023-04-03T22:50:41.623Z,2.72
2023-04-03T22:53:08.822Z,2.85
2023-04-03T22:55:35.992Z,2.50
2023-04-03T22:58:03.211Z,2.53
2023-04-03T23:00:31.714Z,2.60
2023-04-03T23:02:58.858Z,3.15
2023-04-03T23:05:25.860Z,2.70
2023-04-03T23:07:53.171Z,2.55
2023-04-03T23:10:20.838Z,3.08
2023-04-03T23:12:47.904Z,2.70
2023-04-03T23:15:14.926Z,3.17
2023-04-03T23:17:43.260Z,2.97
2023-04-03T23:20:10.931Z,2.90
2023-04-03T23:22:37.909Z,3.38
2023-04-03T23:25:05.657Z,2.70
2023-04-03T23:27:32.613Z,2.72
2023-04-03T23:29:59.547Z,3.33
2023-04-03T23:32:26.586Z,2.80
2023-04-03T23:34:54.961Z,2.65
2023-04-03T23:37:21.938Z,2.65
2023-04-03T23:39:49.289Z,2.90
2023-04-03T23:42:16.234Z,2.75
2023-04-03T23:44:43.234Z,2.78
2023-04-03T23:47:10.187Z,3.00
2023-04-03T23:49:37.189Z,2.90
2023-04-03T23:52:05.638Z,2.80
2023-04-03T23:54:32.637Z,2.35
2023-04-03T23:56:59.640Z,2.47
2023-04-03T23:59:26.779Z,2.67
